Aviation Digital Data Service (ADDS)

Output produced by METARs form (0156 UTC 20 January 2022)
found at http://www.aviationweather.gov/metar/data/
 
Forecast for: KIND (INDIANAPOLIS , IN, US)
Text: KIND 192322Z 2000/2106 33014G21KT P6SM FEW030 BKN070 OVC220
Forecast period: 0000 to 0300 UTC 20 January 2022
Forecast type: FROM: standard forecast or significant change
Winds: from the NNW (330 degrees) at 16 MPH (14 knots; 7.2 m/s)
gusting to 24 MPH (21 knots; 10.8 m/s)
Visibility: 6 or more miles (10+ km)
Ceiling: 7000 feet AGL
Clouds: few clouds at 3000 feet AGL
broken clouds at 7000 feet AGL
overcast cloud deck at 22000 feet AGL
Weather: no significant weather forecast for this period
Text: FM200300 35014KT P6SM BKN030
Forecast period: 0300 to 1500 UTC 20 January 2022
Forecast type: FROM: standard forecast or significant change
Winds: from the N (350 degrees) at 16 MPH (14 knots; 7.2 m/s)
Visibility: 6 or more miles (10+ km)
Ceiling: 3000 feet AGL
Clouds: broken clouds at 3000 feet AGL
Weather: no significant weather forecast for this period
Text: FM201500 36011KT P6SM BKN035
Forecast period: 1500 UTC 20 January 2022 to 0600 UTC 21 January 2022
Forecast type: FROM: standard forecast or significant change
Winds: from the N (360 degrees) at 13 MPH (11 knots; 5.7 m/s)
Visibility: 6 or more miles (10+ km)
Ceiling: 3500 feet AGL
Clouds: broken clouds at 3500 feet AGL
Weather: no significant weather forecast for this period